Time;durP1;ratioP1;P1;durP2;ratioP2;P2;SDS_P1;SDS_P2;PMS_P1;PMS_P2;Temp;Humidity;BMP_temperature;BMP_pressure;BME280_temperature;BME280_humidity;BME280_pressure;Samples;Min_cycle;Max_cycle;Signal;HPM_P1;HPM_P2
2022/07/02 00:00:01;;;;;;;27.98;21.63;;;23.00;99.90;;;;;;5055347;28;20041;-75
2022/07/02 00:02:42;;;;;;;27.00;21.95;;;23.00;99.90;;;;;;5054354;28;20045;-75
2022/07/02 00:05:13;;;;;;;24.42;21.80;;;23.00;99.90;;;;;;5054473;28;20455;-76
2022/07/02 00:07:42;;;;;;;28.63;22.25;;;22.90;99.90;;;;;;5055152;28;20099;-75
2022/07/02 00:10:10;;;;;;;25.33;21.48;;;22.90;99.90;;;;;;5054697;28;20126;-76
2022/07/02 00:12:37;;;;;;;25.52;19.98;;;22.90;99.90;;;;;;5054766;28;20060;-75
2022/07/02 00:15:05;;;;;;;26.77;20.73;;;22.80;99.90;;;;;;5054814;28;20121;-75
2022/07/02 00:17:33;;;;;;;25.70;21.13;;;22.70;99.90;;;;;;5055474;28;20450;-76
2022/07/02 00:20:02;;;;;;;31.75;21.00;;;22.70;99.90;;;;;;5054742;28;20083;-76
2022/07/02 00:22:30;;;;;;;26.63;20.95;;;22.60;99.90;;;;;;5053771;28;20041;-77
2022/07/02 00:24:58;;;;;;;25.25;21.92;;;22.60;99.90;;;;;;5053598;28;20052;-76
2022/07/02 00:27:28;;;;;;;29.77;22.67;;;22.50;99.90;;;;;;5055348;28;20562;-77
2022/07/02 00:29:59;;;;;;;31.92;23.75;;;22.60;99.90;;;;;;5052295;28;20076;-76
2022/07/02 00:32:29;;;;;;;26.95;22.85;;;22.60;99.90;;;;;;5050854;28;20037;-76
2022/07/02 00:34:57;;;;;;;25.98;21.95;;;22.70;99.90;;;;;;5051308;28;20068;-75
2022/07/02 00:37:26;;;;;;;26.73;21.65;;;22.50;99.90;;;;;;5055399;28;20041;-78
2022/07/02 00:39:54;;;;;;;30.95;21.95;;;22.50;99.90;;;;;;5056147;28;20094;-78
2022/07/02 00:42:25;;;;;;;28.40;21.70;;;22.50;99.90;;;;;;5055367;28;20045;-77
2022/07/02 00:44:53;;;;;;;26.20;21.10;;;22.40;99.90;;;;;;5055697;28;20043;-76
2022/07/02 00:47:22;;;;;;;27.45;21.25;;;22.30;99.90;;;;;;5055520;28;20122;-77
2022/07/02 00:49:50;;;;;;;29.27;22.20;;;22.30;99.90;;;;;;5055408;28;20123;-76
2022/07/02 00:52:17;;;;;;;25.35;21.20;;;22.40;99.90;;;;;;5055380;28;20439;-76
2022/07/02 00:54:44;;;;;;;26.35;21.50;;;22.40;99.90;;;;;;5052296;28;20044;-77
2022/07/02 00:57:13;;;;;;;27.40;20.98;;;22.50;99.90;;;;;;5053613;28;20466;-76
2022/07/02 00:59:43;;;;;;;28.17;17.08;;;22.50;99.90;;;;;;5053725;28;20147;-76
2022/07/02 01:02:10;;;;;;;23.77;16.38;;;22.80;99.90;;;;;;5054669;28;20059;-76
2022/07/02 01:04:40;;;;;;;20.10;8.68;;;22.90;99.90;;;;;;5053898;28;20045;-76
2022/07/02 01:07:09;;;;;;;23.15;7.95;;;23.20;99.90;;;;;;5060138;28;20074;-76
2022/07/02 01:12:24;;;;;;;23.60;9.52;;;23.70;99.90;;;;;;5064557;28;20029;-77
2022/07/02 01:14:56;;;;;;;16.20;5.53;;;23.70;99.90;;;;;;5065489;28;20049;-78
2022/07/02 01:17:24;;;;;;;23.30;6.82;;;23.70;99.90;;;;;;5065053;28;20049;-76
2022/07/02 01:19:51;;;;;;;19.88;6.25;;;23.80;99.90;;;;;;5059393;28;20095;-77
2022/07/02 01:22:21;;;;;;;21.75;6.10;;;23.90;99.90;;;;;;5052797;28;20044;-76
2022/07/02 01:24:51;;;;;;;30.13;5.78;;;23.90;99.90;;;;;;5054431;28;20052;-78
2022/07/02 01:27:19;;;;;;;24.42;4.82;;;23.90;99.90;;;;;;5063095;28;20045;-76
2022/07/02 01:29:47;;;;;;;19.45;4.47;;;23.90;99.90;;;;;;5060988;28;20106;-77
2022/07/02 01:32:15;;;;;;;20.92;4.47;;;23.80;99.90;;;;;;5060357;28;20052;-77
2022/07/02 01:34:44;;;;;;;21.60;4.20;;;23.80;99.90;;;;;;5063699;28;20501;-76
2022/07/02 01:37:12;;;;;;;16.70;3.63;;;23.70;99.90;;;;;;5060296;28;20106;-77
2022/07/02 01:39:43;;;;;;;15.20;3.67;;;23.60;99.90;;;;;;5054971;28;20044;-74
2022/07/02 01:42:13;;;;;;;24.67;3.90;;;23.50;99.90;;;;;;5053005;28;20048;-76
2022/07/02 01:44:42;;;;;;;12.95;3.75;;;23.60;99.90;;;;;;5053734;28;20086;-75
2022/07/02 01:47:10;;;;;;;15.30;3.75;;;23.60;99.90;;;;;;5053494;28;20053;-75
2022/07/02 01:49:38;;;;;;;14.25;4.50;;;23.60;99.90;;;;;;5052281;28;20052;-75
2022/07/02 01:52:07;;;;;;;19.35;3.72;;;23.70;99.90;;;;;;5053394;28;20072;-76
2022/07/02 01:54:35;;;;;;;10.18;3.75;;;23.70;99.90;;;;;;5053065;28;20061;-76
2022/07/02 01:57:04;;;;;;;20.88;3.80;;;23.80;99.90;;;;;;5053705;28;20087;-76
2022/07/02 01:59:31;;;;;;;18.08;3.95;;;23.80;99.90;;;;;;5053175;28;20107;-74
2022/07/02 02:01:59;;;;;;;18.55;4.07;;;24.00;99.90;;;;;;5054298;28;20499;-76
2022/07/02 02:04:26;;;;;;;12.27;3.25;;;24.00;99.90;;;;;;5053626;28;20396;-76
2022/07/02 02:06:53;;;;;;;12.20;2.80;;;24.10;99.90;;;;;;5053712;28;20045;-76
2022/07/02 02:09:20;;;;;;;18.38;3.53;;;24.20;99.90;;;;;;5053376;28;20041;-78
2022/07/02 02:11:48;;;;;;;11.10;3.17;;;24.20;99.90;;;;;;5052928;28;20044;-76
2022/07/02 02:14:17;;;;;;;17.50;5.20;;;24.20;99.90;;;;;;5052317;28;20081;-76
2022/07/02 02:16:45;;;;;;;15.82;3.25;;;24.20;99.90;;;;;;5044307;28;20072;-76
2022/07/02 02:19:12;;;;;;;15.07;3.15;;;24.20;99.90;;;;;;5052445;28;20060;-76
2022/07/02 02:21:39;;;;;;;14.95;3.70;;;24.20;99.90;;;;;;5052150;28;20080;-76
2022/07/02 02:24:07;;;;;;;14.63;3.10;;;24.30;99.90;;;;;;5052798;28;20442;-75
2022/07/02 02:26:34;;;;;;;11.75;3.70;;;24.20;99.90;;;;;;5053858;28;20094;-77
2022/07/02 02:29:02;;;;;;;8.88;3.17;;;24.30;99.90;;;;;;5053668;28;20037;-75
2022/07/02 02:31:31;;;;;;;12.25;3.38;;;24.30;99.90;;;;;;5053958;28;20041;-76
2022/07/02 02:33:58;;;;;;;10.60;3.40;;;24.40;99.90;;;;;;5053165;28;20103;-75
2022/07/02 02:36:26;;;;;;;10.90;3.53;;;24.40;99.90;;;;;;5053699;28;20048;-76
2022/07/02 02:38:53;;;;;;;14.60;4.68;;;24.50;99.90;;;;;;5054099;28;20052;-76
2022/07/02 02:41:20;;;;;;;10.48;5.07;;;24.50;99.90;;;;;;5067788;28;20037;-76
2022/07/02 02:43:48;;;;;;;12.30;5.50;;;24.30;99.90;;;;;;5063436;28;20455;-76
2022/07/02 02:46:15;;;;;;;11.80;5.55;;;24.20;99.90;;;;;;5075779;28;20089;-77
2022/07/02 02:48:44;;;;;;;12.82;5.85;;;23.90;99.90;;;;;;5063771;28;20041;-78
2022/07/02 02:51:14;;;;;;;9.73;6.15;;;23.70;99.90;;;;;;5058446;28;20045;-77
2022/07/02 02:53:43;;;;;;;12.43;6.80;;;23.50;99.90;;;;;;5061766;28;20041;-77
2022/07/02 02:56:11;;;;;;;18.02;8.18;;;23.40;99.90;;;;;;5059854;28;20068;-76
2022/07/02 02:58:39;;;;;;;17.42;8.38;;;23.30;99.90;;;;;;5059875;28;20045;-76
2022/07/02 03:01:06;;;;;;;15.18;7.82;;;23.10;99.90;;;;;;5056810;28;20041;-76
2022/07/02 03:03:33;;;;;;;13.90;8.73;;;23.00;99.90;;;;;;5056818;28;20037;-76
2022/07/02 03:06:02;;;;;;;16.92;9.05;;;22.80;99.90;;;;;;5056382;28;20049;-75
2022/07/02 03:08:29;;;;;;;15.73;7.78;;;22.70;99.90;;;;;;5056857;28;20045;-76
2022/07/02 03:10:57;;;;;;;14.20;8.98;;;22.50;99.90;;;;;;5056304;28;20041;-76
2022/07/02 03:13:24;;;;;;;13.77;8.95;;;22.40;99.90;;;;;;5054999;28;20041;-75
2022/07/02 03:15:52;;;;;;;15.10;8.23;;;22.40;99.90;;;;;;5061596;28;20041;-75
2022/07/02 03:18:19;;;;;;;18.95;7.93;;;22.30;99.90;;;;;;5068312;28;20053;-75
2022/07/02 03:20:47;;;;;;;12.38;7.95;;;22.30;99.90;;;;;;5060106;28;20059;-76
2022/07/02 03:23:15;;;;;;;11.20;8.02;;;22.30;99.90;;;;;;5055950;28;20049;-76
2022/07/02 03:25:42;;;;;;;16.17;8.48;;;22.30;99.90;;;;;;5056984;28;20103;-77
2022/07/02 03:28:10;;;;;;;12.73;7.90;;;22.40;99.90;;;;;;5056506;28;20095;-76
2022/07/02 03:30:37;;;;;;;17.23;10.10;;;22.50;99.90;;;;;;5056402;28;20045;-75
2022/07/02 03:33:04;;;;;;;14.65;9.30;;;22.50;99.90;;;;;;5055839;28;20439;-77
2022/07/02 03:35:32;;;;;;;11.45;7.95;;;22.50;99.90;;;;;;5093248;22;20418;-69
2022/07/02 03:38:01;;;;;;;14.90;7.63;;;22.30;99.90;;;;;;5074724;28;20037;-69
2022/07/02 03:40:31;;;;;;;12.98;8.35;;;22.20;99.90;;;;;;5075298;28;20119;-69
2022/07/02 03:42:58;;;;;;;12.45;7.40;;;22.20;99.90;;;;;;5075064;28;20091;-69
2022/07/02 03:45:25;;;;;;;11.02;7.63;;;22.00;99.90;;;;;;5079503;28;20076;-69
2022/07/02 03:47:53;;;;;;;13.25;7.90;;;22.00;99.90;;;;;;5075490;28;20051;-69
2022/07/02 03:50:20;;;;;;;13.82;7.60;;;21.90;99.90;;;;;;5074851;28;20041;-69
2022/07/02 03:52:47;;;;;;;13.13;7.47;;;22.00;99.90;;;;;;5075048;28;20514;-69
2022/07/02 03:55:14;;;;;;;11.85;8.32;;;22.00;99.90;;;;;;5073072;28;20040;-69
2022/07/02 03:57:43;;;;;;;12.98;7.70;;;22.00;99.90;;;;;;5075066;28;20119;-69
2022/07/02 04:00:11;;;;;;;15.88;7.70;;;22.00;99.90;;;;;;5075151;28;20067;-69
2022/07/02 04:02:42;;;;;;;14.55;7.88;;;21.90;99.90;;;;;;5074819;28;20045;-69
2022/07/02 04:05:09;;;;;;;14.68;9.00;;;21.70;99.90;;;;;;5075098;28;20032;-69
2022/07/02 04:07:36;;;;;;;20.25;8.75;;;21.60;99.90;;;;;;5075278;28;20064;-69
2022/07/02 04:10:05;;;;;;;16.42;8.35;;;21.60;99.90;;;;;;5074896;28;20045;-69
2022/07/02 04:12:32;;;;;;;14.55;7.82;;;21.70;99.90;;;;;;5073291;28;20052;-70
2022/07/02 04:15:01;;;;;;;16.48;8.23;;;21.70;99.90;;;;;;5074771;28;20143;-69
2022/07/02 04:17:29;;;;;;;14.25;7.32;;;21.70;99.90;;;;;;5074454;28;20048;-69
2022/07/02 04:19:56;;;;;;;17.85;7.40;;;21.80;99.90;;;;;;5074641;28;20045;-70
2022/07/02 04:22:24;;;;;;;13.07;8.07;;;21.90;99.90;;;;;;5074266;28;20040;-69
2022/07/02 04:24:52;;;;;;;18.25;9.50;;;21.80;99.90;;;;;;5074672;28;20136;-70
2022/07/02 04:27:19;;;;;;;11.82;8.38;;;21.80;99.90;;;;;;5075114;28;20396;-70
2022/07/02 04:29:47;;;;;;;15.35;7.75;;;21.70;99.90;;;;;;5075124;28;20045;-70
2022/07/02 04:32:16;;;;;;;14.68;7.60;;;21.60;99.90;;;;;;5075516;28;20557;-70
2022/07/02 04:34:43;;;;;;;16.20;8.80;;;21.60;99.90;;;;;;5074953;28;20098;-69
2022/07/02 04:37:10;;;;;;;16.42;9.15;;;21.50;99.90;;;;;;5076525;28;20094;-69
2022/07/02 04:39:37;;;;;;;11.73;8.55;;;21.40;99.90;;;;;;5072247;28;20036;-70
2022/07/02 04:42:05;;;;;;;16.23;9.00;;;21.30;99.90;;;;;;5075427;28;20510;-69
2022/07/02 04:44:33;;;;;;;18.90;9.63;;;21.20;99.90;;;;;;5073801;28;20041;-70
2022/07/02 04:47:01;;;;;;;17.17;9.45;;;21.10;99.90;;;;;;5073333;28;20560;-69
2022/07/02 04:49:32;;;;;;;13.10;9.02;;;21.10;99.90;;;;;;5073150;28;20045;-70
2022/07/02 04:51:59;;;;;;;14.30;9.73;;;21.20;99.90;;;;;;5070934;28;20044;-71
2022/07/02 04:54:27;;;;;;;15.25;9.93;;;21.20;99.90;;;;;;5073621;28;20039;-70
2022/07/02 04:56:54;;;;;;;15.90;10.18;;;21.30;99.90;;;;;;5074009;28;20041;-70
2022/07/02 04:59:22;;;;;;;21.60;9.10;;;21.30;99.90;;;;;;5073464;28;20081;-70
2022/07/02 05:01:51;;;;;;;17.90;9.80;;;21.30;99.90;;;;;;5073691;28;20044;-69
2022/07/02 05:04:19;;;;;;;16.45;9.32;;;21.30;99.90;;;;;;5073226;28;20116;-69
2022/07/02 05:06:48;;;;;;;16.02;9.65;;;21.40;99.90;;;;;;5073476;28;20048;-69
2022/07/02 05:09:16;;;;;;;16.50;10.52;;;21.40;99.90;;;;;;5072442;28;20056;-69
2022/07/02 05:11:43;;;;;;;20.73;11.98;;;21.50;99.90;;;;;;5073175;28;20503;-71
2022/07/02 05:14:10;;;;;;;16.85;9.57;;;21.60;99.90;;;;;;5072936;28;20483;-69
2022/07/02 05:16:38;;;;;;;21.00;11.02;;;21.60;99.90;;;;;;5072746;28;20091;-69
2022/07/02 05:19:05;;;;;;;19.15;9.63;;;21.70;99.90;;;;;;5073400;28;20075;-69
2022/07/02 05:21:32;;;;;;;19.42;11.43;;;21.80;99.90;;;;;;5073574;28;20055;-69
2022/07/02 05:24:01;;;;;;;20.60;10.10;;;22.00;99.90;;;;;;5072858;28;20078;-69
2022/07/02 05:26:28;;;;;;;25.17;11.15;;;22.20;99.90;;;;;;5072880;28;20044;-69
2022/07/02 05:28:55;;;;;;;21.73;12.27;;;22.40;99.90;;;;;;5082117;28;20125;-70
2022/07/02 05:31:23;;;;;;;17.95;9.82;;;22.50;99.90;;;;;;5053602;28;20052;-70
2022/07/02 05:33:50;;;;;;;12.65;8.75;;;22.70;99.90;;;;;;5065329;28;20036;-70
2022/07/02 05:36:18;;;;;;;19.02;12.80;;;22.70;99.90;;;;;;5073579;28;20086;-71
2022/07/02 05:38:45;;;;;;;17.10;9.65;;;22.90;99.90;;;;;;5073330;28;20086;-71
2022/07/02 05:41:14;;;;;;;19.38;9.55;;;23.00;99.90;;;;;;5073467;28;20056;-70
2022/07/02 05:43:41;;;;;;;14.20;8.88;;;23.00;99.90;;;;;;5072927;28;20553;-70
2022/07/02 05:46:08;;;;;;;16.63;8.38;;;23.10;99.90;;;;;;5073177;28;20119;-70
2022/07/02 05:48:36;;;;;;;15.27;9.23;;;23.10;99.90;;;;;;5073520;28;20115;-69
2022/07/02 05:51:04;;;;;;;12.65;8.35;;;23.10;99.90;;;;;;5073103;28;20028;-70
2022/07/02 05:53:31;;;;;;;14.20;8.13;;;23.00;99.90;;;;;;5072490;28;20045;-70
2022/07/02 05:55:58;;;;;;;16.45;8.52;;;23.10;99.90;;;;;;5073100;28;20118;-70
2022/07/02 05:58:27;;;;;;;13.18;8.05;;;23.20;99.90;;;;;;5072786;28;20040;-70
2022/07/02 06:00:54;;;;;;;16.48;10.10;;;23.20;99.90;;;;;;5062187;28;20110;-70
2022/07/02 06:03:21;;;;;;;15.57;8.40;;;23.40;99.90;;;;;;5072861;28;20465;-70
2022/07/02 06:08:33;;;;;;;13.98;8.07;;;23.70;99.90;;;;;;5070694;28;20170;-70
2022/07/02 06:11:00;;;;;;;13.93;8.65;;;23.70;99.90;;;;;;5071561;28;20500;-70
2022/07/02 06:13:29;;;;;;;15.75;7.32;;;23.60;99.90;;;;;;5072750;28;20545;-70
2022/07/02 06:15:56;;;;;;;12.00;7.15;;;23.80;99.90;;;;;;5072523;28;20040;-70
2022/07/02 06:18:24;;;;;;;9.80;5.47;;;24.00;99.90;;;;;;5069865;28;20041;-70
2022/07/02 06:20:52;;;;;;;10.75;5.65;;;24.10;99.90;;;;;;5075925;28;20052;-70
2022/07/02 06:23:21;;;;;;;9.88;5.80;;;23.90;99.90;;;;;;5076061;28;20051;-70
2022/07/02 06:25:49;;;;;;;8.00;4.97;;;24.00;99.90;;;;;;5074593;28;20036;-71
2022/07/02 06:28:16;;;;;;;10.40;5.07;;;23.90;99.90;;;;;;5076408;28;20082;-70
2022/07/02 06:30:48;;;;;;;15.55;8.05;;;23.70;99.90;;;;;;5076604;28;20040;-70
2022/07/02 06:33:15;;;;;;;16.02;7.35;;;24.00;99.90;;;;;;5076367;28;20045;-70
2022/07/02 06:35:43;;;;;;;10.88;6.32;;;24.00;99.90;;;;;;5076540;28;20049;-70
2022/07/02 06:38:11;;;;;;;13.23;6.30;;;24.20;99.90;;;;;;5066347;28;20055;-71
2022/07/02 06:40:39;;;;;;;14.60;7.15;;;24.50;99.90;;;;;;5056798;28;20075;-70
2022/07/02 06:43:06;;;;;;;11.95;6.65;;;24.90;99.90;;;;;;5056853;28;20076;-71
2022/07/02 06:45:33;;;;;;;10.52;5.22;;;25.00;99.90;;;;;;5070030;28;20032;-71
2022/07/02 06:48:02;;;;;;;14.05;5.47;;;25.10;99.90;;;;;;5075301;28;20044;-71
2022/07/02 06:50:29;;;;;;;16.15;5.65;;;25.30;99.90;;;;;;5075957;28;20069;-72
2022/07/02 06:52:57;;;;;;;13.07;5.18;;;25.90;99.90;;;;;;5074218;28;20484;-70
2022/07/02 06:55:24;;;;;;;12.07;5.28;;;26.50;99.90;;;;;;5084609;28;20040;-71
2022/07/02 06:57:51;;;;;;;10.50;4.88;;;26.70;99.90;;;;;;5082538;28;20082;-71
2022/07/02 07:00:23;;;;;;;7.80;3.40;;;27.20;99.90;;;;;;5077326;28;20102;-71
2022/07/02 07:02:51;;;;;;;6.68;3.40;;;27.20;99.90;;;;;;5078925;28;20048;-70
2022/07/02 07:05:20;;;;;;;10.13;4.03;;;27.10;99.90;;;;;;5076091;28;20476;-69
2022/07/02 07:07:47;;;;;;;11.60;4.50;;;27.40;99.90;;;;;;5075298;28;20381;-67
2022/07/02 07:10:14;;;;;;;5.88;2.67;;;27.50;99.90;;;;;;5076091;28;20053;-70
2022/07/02 07:12:42;;;;;;;7.82;3.80;;;27.70;99.90;;;;;;5072637;28;20499;-70
2022/07/02 07:15:10;;;;;;;7.03;2.85;;;28.00;99.90;;;;;;5055836;28;20124;-70
2022/07/02 07:17:37;;;;;;;5.38;2.58;;;28.10;99.90;;;;;;5073665;28;20094;-69
2022/07/02 07:20:06;;;;;;;8.38;4.93;;;28.50;99.90;;;;;;5075930;28;20075;-69
2022/07/02 07:22:35;;;;;;;6.45;2.72;;;28.70;99.90;;;;;;5075523;28;20040;-70
2022/07/02 07:25:02;;;;;;;6.60;2.90;;;28.90;99.90;;;;;;5065301;28;20403;-70
2022/07/02 07:27:29;;;;;;;5.40;2.53;;;28.60;99.90;;;;;;5089740;28;20089;-70
2022/07/02 07:29:58;;;;;;;5.57;2.03;;;28.20;99.90;;;;;;5084519;28;20105;-70
2022/07/02 07:32:25;;;;;;;6.53;2.38;;;28.00;99.90;;;;;;5084170;28;20048;-70
2022/07/02 07:34:52;;;;;;;5.10;2.03;;;28.10;99.90;;;;;;5078341;28;20052;-70
2022/07/02 07:37:19;;;;;;;4.68;2.22;;;28.00;99.90;;;;;;5074739;28;20503;-70
2022/07/02 07:39:48;;;;;;;5.22;2.00;;;27.90;99.90;;;;;;5074585;28;20469;-70
2022/07/02 07:42:15;;;;;;;5.57;2.13;;;27.60;99.90;;;;;;5069846;28;20072;-70
2022/07/02 07:44:43;;;;;;;5.70;2.20;;;27.30;99.90;;;;;;5055565;28;20558;-70
2022/07/02 07:47:10;;;;;;;5.43;2.30;;;27.20;99.90;;;;;;5074397;28;20068;-71
2022/07/02 07:49:37;;;;;;;4.60;1.73;;;27.00;99.90;;;;;;5086829;28;20089;-70
2022/07/02 07:52:05;;;;;;;5.43;2.20;;;27.00;99.90;;;;;;5080176;28;20097;-70
2022/07/02 07:54:32;;;;;;;7.32;2.17;;;27.30;99.90;;;;;;5080508;28;20032;-69
2022/07/02 07:57:01;;;;;;;5.55;1.70;;;27.50;99.90;;;;;;5086781;28;20062;-71
2022/07/02 07:59:28;;;;;;;7.93;4.68;;;27.30;99.90;;;;;;5094679;28;20122;-69
2022/07/02 08:01:56;;;;;;;4.75;1.95;;;27.30;99.90;;;;;;5095366;28;20044;-70
2022/07/02 08:04:24;;;;;;;4.70;1.67;;;27.50;99.90;;;;;;5094864;28;20040;-68
2022/07/02 08:06:51;;;;;;;6.13;1.85;;;27.30;99.90;;;;;;5094971;28;20047;-69
2022/07/02 08:09:18;;;;;;;5.40;1.98;;;27.20;99.90;;;;;;5095115;28;20051;-69
2022/07/02 08:11:46;;;;;;;6.82;1.80;;;27.10;99.90;;;;;;5095052;28;20036;-69
2022/07/02 08:14:14;;;;;;;5.72;1.95;;;27.10;99.90;;;;;;5095343;28;20043;-69
2022/07/02 08:16:42;;;;;;;6.72;1.50;;;26.80;99.90;;;;;;5085087;28;20052;-70
2022/07/02 08:19:09;;;;;;;5.13;1.48;;;27.00;99.90;;;;;;5075694;28;20044;-69
2022/07/02 08:21:36;;;;;;;5.40;1.65;;;26.80;99.90;;;;;;5074591;28;20044;-70
2022/07/02 08:24:04;;;;;;;5.00;1.45;;;27.10;99.90;;;;;;5074033;28;20126;-70
2022/07/02 08:26:31;;;;;;;4.70;1.70;;;27.20;99.90;;;;;;5074442;28;20041;-69
2022/07/02 08:28:58;;;;;;;3.28;1.40;;;27.30;99.90;;;;;;5074549;28;20087;-70
2022/07/02 08:31:27;;;;;;;4.90;1.48;;;27.60;99.90;;;;;;5074515;28;20036;-69
2022/07/02 08:33:55;;;;;;;8.55;1.55;;;27.70;99.90;;;;;;5073614;28;20052;-70
2022/07/02 08:36:22;;;;;;;6.45;1.60;;;28.20;99.90;;;;;;5074304;28;20056;-69
2022/07/02 08:38:49;;;;;;;5.60;1.75;;;27.90;99.90;;;;;;5074173;28;20048;-69
2022/07/02 08:41:17;;;;;;;3.75;1.60;;;28.40;99.90;;;;;;5074267;28;20044;-69
2022/07/02 08:43:49;;;;;;;9.10;1.90;;;28.60;99.90;;;;;;5073578;28;20048;-69
2022/07/02 08:46:18;;;;;;;7.70;1.70;;;29.10;99.90;;;;;;5073835;28;20040;-69
2022/07/02 08:48:49;;;;;;;7.40;2.20;;;29.20;99.90;;;;;;5074666;28;20044;-70
2022/07/02 08:51:18;;;;;;;8.30;1.70;;;29.20;99.90;;;;;;5074326;28;20040;-70
2022/07/02 08:53:47;;;;;;;6.10;1.67;;;29.60;99.90;;;;;;5073718;28;20090;-69
2022/07/02 08:56:15;;;;;;;6.00;2.00;;;29.80;99.90;;;;;;5074247;28;20483;-69
2022/07/02 08:58:44;;;;;;;8.88;2.08;;;29.90;98.90;;;;;;5074581;28;20115;-71
2022/07/02 09:01:13;;;;;;;4.53;1.40;;;29.20;99.90;;;;;;5073750;28;20130;-70
2022/07/02 09:03:42;;;;;;;4.45;1.48;;;28.40;99.90;;;;;;5073508;28;20071;-70
2022/07/02 09:06:11;;;;;;;7.93;2.00;;;28.40;99.90;;;;;;5073538;28;20076;-70
2022/07/02 09:08:40;;;;;;;3.80;1.70;;;28.40;99.90;;;;;;5073513;28;20078;-70
2022/07/02 09:11:08;;;;;;;6.43;1.92;;;28.40;99.90;;;;;;5073405;28;20522;-70
2022/07/02 09:13:36;;;;;;;5.13;1.73;;;28.70;99.90;;;;;;5073279;28;20115;-69
2022/07/02 09:16:03;;;;;;;5.20;1.80;;;28.50;99.90;;;;;;5074091;28;20036;-70
2022/07/02 09:18:30;;;;;;;2.53;1.50;;;28.80;99.90;;;;;;5073466;28;20068;-70
2022/07/02 09:20:58;;;;;;;4.57;1.90;;;29.00;99.90;;;;;;5073682;28;20101;-69
2022/07/02 09:23:28;;;;;;;3.03;1.50;;;28.90;99.90;;;;;;5072954;28;20505;-71
2022/07/02 09:25:55;;;;;;;4.50;1.52;;;29.20;99.90;;;;;;5072979;28;20048;-71
2022/07/02 09:28:22;;;;;;;6.28;1.80;;;29.20;99.90;;;;;;5073248;28;20079;-70
2022/07/02 09:30:50;;;;;;;6.25;1.75;;;29.40;99.90;;;;;;5072107;28;20051;-70
2022/07/02 09:33:32;;;;;;;6.10;2.03;;;29.90;99.90;;;;;;5073490;28;20044;-71
2022/07/02 09:36:00;;;;;;;6.85;2.55;;;30.00;99.90;;;;;;5033826;28;20037;-69
2022/07/02 09:38:29;;;;;;;10.25;3.55;;;30.50;99.90;;;;;;5031730;28;20049;-71
2022/07/02 09:40:57;;;;;;;10.85;3.70;;;31.00;99.90;;;;;;5032089;28;20057;-70
2022/07/02 09:43:27;;;;;;;6.03;2.72;;;31.40;99.50;;;;;;5033064;28;20463;-70
2022/07/02 09:45:54;;;;;;;4.22;2.42;;;31.90;98.10;;;;;;5035984;28;20060;-70
2022/07/02 09:48:22;;;;;;;5.47;2.75;;;31.90;96.80;;;;;;5040939;28;20049;-70
2022/07/02 09:50:49;;;;;;;5.70;2.97;;;31.70;96.70;;;;;;5034451;28;20058;-71
2022/07/02 09:53:17;;;;;;;5.35;3.10;;;31.30;97.20;;;;;;5033058;28;20045;-70
2022/07/02 09:55:50;;;;;;;5.55;2.55;;;31.50;97.20;;;;;;5032593;28;20123;-70
2022/07/02 09:58:25;;;;;;;9.48;4.60;;;31.10;97.20;;;;;;5033393;28;20083;-70
2022/07/02 10:00:53;;;;;;;;;;;31.00;97.80;;;;;;5033710;28;20064;-69
2022/07/02 10:03:21;;;;;;;8.60;2.97;;;30.90;98.20;;;;;;5032881;28;20019;-71
2022/07/02 10:05:52;;;;;;;8.15;2.53;;;31.00;98.30;;;;;;5032867;28;20042;-71
2022/07/02 10:08:19;;;;;;;7.25;2.80;;;31.10;97.90;;;;;;5033440;28;20041;-69
2022/07/02 10:10:49;;;;;;;5.55;2.25;;;30.70;97.90;;;;;;5031865;28;20046;-70
2022/07/02 10:13:18;;;;;;;8.50;2.00;;;30.80;98.50;;;;;;5032841;28;20049;-71
2022/07/02 10:15:53;;;;;;;5.88;2.47;;;31.00;97.60;;;;;;5032750;28;20091;-70
2022/07/02 10:18:21;;;;;;;13.00;3.03;;;30.80;98.10;;;;;;5032892;28;20511;-70
2022/07/02 10:20:49;;;;;;;10.10;3.35;;;30.70;98.00;;;;;;5032801;28;20076;-70
2022/07/02 10:23:17;;;;;;;7.43;2.85;;;30.70;98.30;;;;;;5033329;28;20052;-70
2022/07/02 10:25:45;;;;;;;8.23;3.47;;;30.40;98.60;;;;;;5036029;28;20052;-69
2022/07/02 10:28:14;;;;;;;8.80;3.72;;;30.40;99.00;;;;;;5035165;28;20048;-70
2022/07/02 10:30:43;;;;;;;9.52;3.65;;;30.40;98.70;;;;;;5032323;28;20481;-70
2022/07/02 10:33:20;;;;;;;10.90;2.67;;;30.40;98.90;;;;;;5032918;28;20041;-69
2022/07/02 10:35:48;;;;;;;10.25;3.58;;;30.30;99.20;;;;;;5050139;28;20408;-70
2022/07/02 10:38:16;;;;;;;6.28;2.70;;;30.30;98.90;;;;;;5052931;28;20143;-70
2022/07/02 10:40:47;;;;;;;8.73;2.83;;;30.50;98.10;;;;;;5052672;28;20497;-70
2022/07/02 10:43:18;;;;;;;6.18;2.63;;;30.40;98.10;;;;;;5052150;28;20059;-70
2022/07/02 10:45:46;;;;;;;9.68;2.75;;;30.70;97.60;;;;;;5052173;28;20048;-70
2022/07/02 10:48:14;;;;;;;7.90;2.70;;;31.00;96.60;;;;;;5052684;28;20048;-70
2022/07/02 10:50:44;;;;;;;8.23;3.38;;;31.20;96.20;;;;;;5052797;28;20041;-69
2022/07/02 10:53:12;;;;;;;10.30;4.50;;;31.10;95.70;;;;;;5052472;28;20041;-69
2022/07/02 10:55:41;;;;;;;7.03;2.70;;;31.00;95.40;;;;;;5052394;28;20064;-70
2022/07/02 10:58:19;;;;;;;8.75;4.50;;;30.80;95.60;;;;;;5052278;28;20407;-70
2022/07/02 11:00:48;;;;;;;7.68;4.28;;;31.10;95.90;;;;;;5052464;28;20045;-69
2022/07/02 11:03:18;;;;;;;8.88;4.43;;;31.20;94.90;;;;;;5052337;28;20101;-70
2022/07/02 11:05:59;;;;;;;8.27;3.10;;;31.30;95.00;;;;;;5053980;28;20539;-70
2022/07/02 11:08:58;;;;;;;7.15;3.20;;;31.50;95.30;;;;;;5055964;28;20041;-70
2022/07/02 11:11:49;;;;;;;12.60;3.10;;;31.50;95.50;;;;;;5055717;28;20051;-70
2022/07/02 11:14:17;;;;;;;6.72;3.55;;;31.00;96.00;;;;;;5055215;28;20071;-71
2022/07/02 11:16:48;;;;;;;5.97;3.05;;;30.50;97.20;;;;;;5066306;28;20068;-71
2022/07/02 11:19:18;;;;;;;14.57;9.20;;;30.00;97.50;;;;;;5075696;28;20090;-70
2022/07/02 11:21:46;;;;;;;7.60;3.65;;;29.70;98.90;;;;;;5075569;28;20617;-71
2022/07/02 11:24:16;;;;;;;10.25;5.38;;;30.20;99.20;;;;;;5075275;28;20078;-70
2022/07/02 11:26:43;;;;;;;10.50;3.97;;;30.40;97.90;;;;;;5075289;28;20029;-71
2022/07/02 11:29:11;;;;;;;6.45;2.65;;;30.60;97.60;;;;;;5075744;28;20056;-70
2022/07/02 11:31:40;;;;;;;8.02;2.97;;;30.90;96.70;;;;;;5075498;28;20044;-70
2022/07/02 11:34:09;;;;;;;15.45;8.50;;;30.90;96.90;;;;;;5074875;28;20131;-70
2022/07/02 11:36:38;;;;;;;9.88;3.50;;;31.00;97.80;;;;;;5074309;28;20052;-70
2022/07/02 11:39:10;;;;;;;21.70;5.82;;;31.10;97.10;;;;;;5074052;28;20126;-69
2022/07/02 11:41:38;;;;;;;13.70;5.80;;;31.30;97.20;;;;;;5075283;28;20127;-70
2022/07/02 11:44:15;;;;;;;34.03;7.13;;;31.30;97.30;;;;;;5075082;28;20131;-70
2022/07/02 11:46:43;;;;;;;12.93;5.03;;;31.30;97.50;;;;;;5075156;28;20119;-70
2022/07/02 11:49:17;;;;;;;31.33;8.77;;;31.30;96.70;;;;;;5075282;28;20074;-70
2022/07/02 11:51:45;;;;;;;13.20;5.72;;;31.30;96.70;;;;;;5073805;28;20049;-70
2022/07/02 11:54:13;;;;;;;5.88;2.88;;;31.20;96.80;;;;;;5074881;28;20041;-69
2022/07/02 11:56:42;;;;;;;8.27;4.68;;;30.80;96.40;;;;;;5075014;28;20036;-69
2022/07/02 11:59:11;;;;;;;10.63;5.38;;;30.60;96.80;;;;;;5075075;28;20048;-69
2022/07/02 12:01:39;;;;;;;8.75;4.47;;;30.50;97.20;;;;;;5075646;28;20129;-70
2022/07/02 12:04:10;;;;;;;12.30;8.40;;;30.40;97.40;;;;;;5074311;28;20115;-70
2022/07/02 12:06:40;;;;;;;19.77;8.13;;;30.30;98.00;;;;;;5073465;28;20057;-70
2022/07/02 12:09:09;;;;;;;14.00;9.80;;;30.50;98.20;;;;;;5074580;28;20549;-70
2022/07/02 12:11:38;;;;;;;7.68;3.38;;;30.80;97.70;;;;;;5074688;28;20079;-70
2022/07/02 12:14:07;;;;;;;10.38;6.90;;;31.00;97.40;;;;;;5074537;28;20052;-69
2022/07/02 12:16:36;;;;;;;5.82;3.10;;;31.00;97.20;;;;;;5073990;28;20036;-70
2022/07/02 12:19:07;;;;;;;7.07;2.50;;;30.90;97.10;;;;;;5074465;28;20534;-70
2022/07/02 12:21:37;;;;;;;9.20;3.25;;;30.90;96.70;;;;;;5074741;28;20040;-69
2022/07/02 12:24:08;;;;;;;7.80;3.70;;;30.80;96.60;;;;;;5074101;28;20058;-70
2022/07/02 12:26:35;;;;;;;12.20;3.30;;;30.80;97.00;;;;;;5074334;28;20496;-70
2022/07/02 12:31:52;;;;;;;10.65;3.45;;;30.90;97.10;;;;;;5074271;28;20043;-71
2022/07/02 12:34:20;;;;;;;7.70;4.65;;;31.00;96.90;;;;;;5073692;28;20084;-70
2022/07/02 12:36:56;;;;;;;7.38;3.38;;;31.20;96.50;;;;;;5074105;28;20056;-70
2022/07/02 12:39:38;;;;;;;9.80;2.75;;;31.20;96.50;;;;;;5074135;28;20484;-70
2022/07/02 12:42:14;;;;;;;4.13;2.45;;;31.10;96.70;;;;;;5074195;28;20098;-70
2022/07/02 12:44:51;;;;;;;6.97;2.97;;;31.00;97.10;;;;;;5073466;28;20048;-70
2022/07/02 12:47:27;;;;;;;5.40;2.95;;;31.10;97.20;;;;;;5074103;28;20094;-69
2022/07/02 12:50:00;;;;;;;7.93;2.75;;;31.10;97.10;;;;;;5073818;28;20093;-70
2022/07/02 12:52:30;;;;;;;8.38;3.80;;;31.20;97.00;;;;;;5074146;28;20063;-71
2022/07/02 12:54:59;;;;;;;8.98;3.63;;;31.20;97.10;;;;;;5074365;28;20044;-70